sensor_id;sensor_type;location;lat;lon;timestamp;P1;durP1;ratioP1;P2;durP2;ratioP2
59302;SDS011;45074;52.764;6.896;2023-07-29T00:01:49;13.00;;;9.13;;
59302;SDS011;45074;52.764;6.896;2023-07-29T00:04:16;13.30;;;10.02;;
59302;SDS011;45074;52.764;6.896;2023-07-29T00:06:42;13.70;;;8.80;;
59302;SDS011;45074;52.764;6.896;2023-07-29T00:09:07;12.55;;;9.32;;
59302;SDS011;45074;52.764;6.896;2023-07-29T00:11:33;13.90;;;9.85;;
59302;SDS011;45074;52.764;6.896;2023-07-29T00:14:00;14.60;;;10.93;;
59302;SDS011;45074;52.764;6.896;2023-07-29T00:16:26;14.85;;;10.40;;
59302;SDS011;45074;52.764;6.896;2023-07-29T00:18:52;15.35;;;10.80;;
59302;SDS011;45074;52.764;6.896;2023-07-29T00:21:17;14.48;;;11.05;;
59302;SDS011;45074;52.764;6.896;2023-07-29T00:23:44;15.20;;;10.80;;
59302;SDS011;45074;52.764;6.896;2023-07-29T00:26:10;14.13;;;10.25;;
59302;SDS011;45074;52.764;6.896;2023-07-29T00:28:36;15.88;;;10.73;;
59302;SDS011;45074;52.764;6.896;2023-07-29T00:31:01;16.05;;;10.25;;
59302;SDS011;45074;52.764;6.896;2023-07-29T00:33:27;15.35;;;10.60;;
59302;SDS011;45074;52.764;6.896;2023-07-29T00:35:53;16.20;;;10.73;;
59302;SDS011;45074;52.764;6.896;2023-07-29T00:38:18;14.98;;;10.25;;
59302;SDS011;45074;52.764;6.896;2023-07-29T00:40:44;14.35;;;11.27;;
59302;SDS011;45074;52.764;6.896;2023-07-29T00:43:10;13.98;;;10.93;;
59302;SDS011;45074;52.764;6.896;2023-07-29T00:45:36;15.50;;;10.85;;
59302;SDS011;45074;52.764;6.896;2023-07-29T00:48:02;14.15;;;10.38;;
59302;SDS011;45074;52.764;6.896;2023-07-29T00:50:28;14.85;;;10.80;;
59302;SDS011;45074;52.764;6.896;2023-07-29T00:52:55;15.60;;;10.63;;
59302;SDS011;45074;52.764;6.896;2023-07-29T00:55:21;16.17;;;11.00;;
59302;SDS011;45074;52.764;6.896;2023-07-29T00:57:48;14.57;;;10.70;;
59302;SDS011;45074;52.764;6.896;2023-07-29T01:00:16;13.68;;;10.30;;
59302;SDS011;45074;52.764;6.896;2023-07-29T01:02:42;14.25;;;10.45;;
59302;SDS011;45074;52.764;6.896;2023-07-29T01:05:08;16.80;;;10.57;;
59302;SDS011;45074;52.764;6.896;2023-07-29T01:10:05;14.25;;;10.38;;
59302;SDS011;45074;52.764;6.896;2023-07-29T01:12:51;15.70;;;10.80;;
59302;SDS011;45074;52.764;6.896;2023-07-29T01:15:32;13.13;;;9.65;;
59302;SDS011;45074;52.764;6.896;2023-07-29T01:18:08;14.95;;;10.23;;
59302;SDS011;45074;52.764;6.896;2023-07-29T01:20:37;14.88;;;10.27;;
59302;SDS011;45074;52.764;6.896;2023-07-29T01:23:07;13.82;;;10.07;;
59302;SDS011;45074;52.764;6.896;2023-07-29T01:25:33;13.32;;;9.45;;
59302;SDS011;45074;52.764;6.896;2023-07-29T01:27:59;13.40;;;8.93;;
59302;SDS011;45074;52.764;6.896;2023-07-29T01:30:26;12.27;;;9.15;;
59302;SDS011;45074;52.764;6.896;2023-07-29T01:32:59;12.35;;;9.23;;
59302;SDS011;45074;52.764;6.896;2023-07-29T01:38:41;14.48;;;10.73;;
59302;SDS011;45074;52.764;6.896;2023-07-29T01:40:48;15.95;;;10.25;;
59302;SDS011;45074;52.764;6.896;2023-07-29T01:43:14;15.27;;;9.77;;
59302;SDS011;45074;52.764;6.896;2023-07-29T01:45:40;14.65;;;9.45;;
59302;SDS011;45074;52.764;6.896;2023-07-29T01:48:07;13.82;;;11.55;;
59302;SDS011;45074;52.764;6.896;2023-07-29T01:50:33;14.20;;;12.52;;
59302;SDS011;45074;52.764;6.896;2023-07-29T01:52:59;14.55;;;12.02;;
59302;SDS011;45074;52.764;6.896;2023-07-29T01:55:25;12.98;;;9.35;;
59302;SDS011;45074;52.764;6.896;2023-07-29T01:57:50;11.57;;;9.07;;
59302;SDS011;45074;52.764;6.896;2023-07-29T02:00:19;13.90;;;11.63;;
59302;SDS011;45074;52.764;6.896;2023-07-29T02:02:45;12.52;;;9.00;;
59302;SDS011;45074;52.764;6.896;2023-07-29T02:05:10;13.38;;;9.95;;
59302;SDS011;45074;52.764;6.896;2023-07-29T02:07:36;13.85;;;9.20;;
59302;SDS011;45074;52.764;6.896;2023-07-29T02:10:02;12.73;;;9.52;;
59302;SDS011;45074;52.764;6.896;2023-07-29T02:12:27;14.45;;;9.85;;
59302;SDS011;45074;52.764;6.896;2023-07-29T02:14:53;13.32;;;11.13;;
59302;SDS011;45074;52.764;6.896;2023-07-29T02:17:19;14.23;;;11.80;;
59302;SDS011;45074;52.764;6.896;2023-07-29T02:19:44;13.25;;;11.40;;
59302;SDS011;45074;52.764;6.896;2023-07-29T02:22:12;13.90;;;12.18;;
59302;SDS011;45074;52.764;6.896;2023-07-29T02:24:39;13.75;;;11.68;;
59302;SDS011;45074;52.764;6.896;2023-07-29T02:27:04;13.88;;;12.10;;
59302;SDS011;45074;52.764;6.896;2023-07-29T02:29:30;15.05;;;10.68;;
59302;SDS011;45074;52.764;6.896;2023-07-29T02:31:58;13.10;;;10.55;;
59302;SDS011;45074;52.764;6.896;2023-07-29T02:34:24;14.98;;;11.25;;
59302;SDS011;45074;52.764;6.896;2023-07-29T02:36:50;13.05;;;11.13;;
59302;SDS011;45074;52.764;6.896;2023-07-29T02:39:15;13.13;;;11.63;;
59302;SDS011;45074;52.764;6.896;2023-07-29T02:41:41;18.02;;;16.10;;
59302;SDS011;45074;52.764;6.896;2023-07-29T02:44:06;13.80;;;10.85;;
59302;SDS011;45074;52.764;6.896;2023-07-29T02:46:32;13.30;;;11.93;;
59302;SDS011;45074;52.764;6.896;2023-07-29T02:48:58;12.40;;;10.43;;
59302;SDS011;45074;52.764;6.896;2023-07-29T02:51:24;14.30;;;11.43;;
59302;SDS011;45074;52.764;6.896;2023-07-29T02:53:49;12.52;;;10.10;;
59302;SDS011;45074;52.764;6.896;2023-07-29T02:56:15;12.52;;;9.77;;
59302;SDS011;45074;52.764;6.896;2023-07-29T02:58:41;11.93;;;9.90;;
59302;SDS011;45074;52.764;6.896;2023-07-29T03:01:06;12.05;;;10.70;;
59302;SDS011;45074;52.764;6.896;2023-07-29T03:03:32;11.85;;;10.57;;
59302;SDS011;45074;52.764;6.896;2023-07-29T03:06:02;11.75;;;10.05;;
59302;SDS011;45074;52.764;6.896;2023-07-29T03:08:29;12.80;;;10.80;;
59302;SDS011;45074;52.764;6.896;2023-07-29T03:10:55;11.27;;;9.95;;
59302;SDS011;45074;52.764;6.896;2023-07-29T03:13:22;11.32;;;8.98;;
59302;SDS011;45074;52.764;6.896;2023-07-29T03:15:47;10.93;;;9.60;;
59302;SDS011;45074;52.764;6.896;2023-07-29T03:18:13;12.35;;;8.93;;
59302;SDS011;45074;52.764;6.896;2023-07-29T03:20:39;10.38;;;8.02;;
59302;SDS011;45074;52.764;6.896;2023-07-29T03:23:05;10.55;;;8.65;;
59302;SDS011;45074;52.764;6.896;2023-07-29T03:25:31;11.35;;;8.15;;
59302;SDS011;45074;52.764;6.896;2023-07-29T03:27:58;10.88;;;9.13;;
59302;SDS011;45074;52.764;6.896;2023-07-29T03:30:25;11.30;;;8.50;;
59302;SDS011;45074;52.764;6.896;2023-07-29T03:32:51;11.50;;;8.80;;
59302;SDS011;45074;52.764;6.896;2023-07-29T03:35:17;12.73;;;9.32;;
59302;SDS011;45074;52.764;6.896;2023-07-29T03:37:44;9.85;;;8.75;;
59302;SDS011;45074;52.764;6.896;2023-07-29T03:40:09;9.90;;;8.75;;
59302;SDS011;45074;52.764;6.896;2023-07-29T03:42:35;12.15;;;8.57;;
59302;SDS011;45074;52.764;6.896;2023-07-29T03:45:01;10.15;;;7.68;;
59302;SDS011;45074;52.764;6.896;2023-07-29T03:47:27;10.88;;;8.60;;
59302;SDS011;45074;52.764;6.896;2023-07-29T03:49:52;9.68;;;8.35;;
59302;SDS011;45074;52.764;6.896;2023-07-29T03:52:18;10.00;;;7.47;;
59302;SDS011;45074;52.764;6.896;2023-07-29T03:54:44;9.80;;;8.20;;
59302;SDS011;45074;52.764;6.896;2023-07-29T03:57:10;10.52;;;8.63;;
59302;SDS011;45074;52.764;6.896;2023-07-29T03:59:36;8.98;;;4.45;;
59302;SDS011;45074;52.764;6.896;2023-07-29T04:02:02;9.52;;;7.25;;
59302;SDS011;45074;52.764;6.896;2023-07-29T04:04:27;13.60;;;12.25;;
59302;SDS011;45074;52.764;6.896;2023-07-29T04:06:53;11.73;;;8.65;;
59302;SDS011;45074;52.764;6.896;2023-07-29T04:09:19;7.50;;;3.80;;
59302;SDS011;45074;52.764;6.896;2023-07-29T04:11:45;8.70;;;4.35;;
59302;SDS011;45074;52.764;6.896;2023-07-29T04:14:11;6.85;;;3.80;;
59302;SDS011;45074;52.764;6.896;2023-07-29T04:16:37;6.35;;;3.70;;
59302;SDS011;45074;52.764;6.896;2023-07-29T04:19:03;6.85;;;3.67;;
59302;SDS011;45074;52.764;6.896;2023-07-29T04:21:29;7.25;;;4.10;;
59302;SDS011;45074;52.764;6.896;2023-07-29T04:23:55;11.80;;;10.50;;
59302;SDS011;45074;52.764;6.896;2023-07-29T04:26:21;7.15;;;3.70;;
59302;SDS011;45074;52.764;6.896;2023-07-29T04:28:47;8.98;;;7.05;;
59302;SDS011;45074;52.764;6.896;2023-07-29T04:31:12;8.88;;;8.02;;
59302;SDS011;45074;52.764;6.896;2023-07-29T04:33:38;7.10;;;3.85;;
59302;SDS011;45074;52.764;6.896;2023-07-29T04:36:04;5.80;;;3.40;;
59302;SDS011;45074;52.764;6.896;2023-07-29T04:38:31;6.10;;;3.45;;
59302;SDS011;45074;52.764;6.896;2023-07-29T04:41:00;9.40;;;8.15;;
59302;SDS011;45074;52.764;6.896;2023-07-29T04:43:30;10.70;;;8.20;;
59302;SDS011;45074;52.764;6.896;2023-07-29T04:45:57;8.45;;;7.07;;
59302;SDS011;45074;52.764;6.896;2023-07-29T04:48:22;9.65;;;7.72;;
59302;SDS011;45074;52.764;6.896;2023-07-29T04:50:48;10.35;;;8.88;;
59302;SDS011;45074;52.764;6.896;2023-07-29T04:53:14;9.52;;;8.63;;
59302;SDS011;45074;52.764;6.896;2023-07-29T04:55:42;10.13;;;9.20;;
59302;SDS011;45074;52.764;6.896;2023-07-29T04:58:08;8.90;;;8.02;;
59302;SDS011;45074;52.764;6.896;2023-07-29T05:00:34;9.82;;;8.90;;
59302;SDS011;45074;52.764;6.896;2023-07-29T05:03:00;9.93;;;9.00;;
59302;SDS011;45074;52.764;6.896;2023-07-29T05:05:26;9.63;;;8.35;;
59302;SDS011;45074;52.764;6.896;2023-07-29T05:07:52;9.82;;;8.88;;
59302;SDS011;45074;52.764;6.896;2023-07-29T05:10:18;9.38;;;8.52;;
59302;SDS011;45074;52.764;6.896;2023-07-29T05:12:44;9.30;;;8.50;;
59302;SDS011;45074;52.764;6.896;2023-07-29T05:15:10;10.32;;;9.23;;
59302;SDS011;45074;52.764;6.896;2023-07-29T05:17:36;10.55;;;9.55;;
59302;SDS011;45074;52.764;6.896;2023-07-29T05:20:01;7.95;;;7.15;;
59302;SDS011;45074;52.764;6.896;2023-07-29T05:22:27;9.15;;;8.23;;
59302;SDS011;45074;52.764;6.896;2023-07-29T05:24:53;10.30;;;8.75;;
59302;SDS011;45074;52.764;6.896;2023-07-29T05:27:19;10.02;;;8.35;;
59302;SDS011;45074;52.764;6.896;2023-07-29T05:29:44;8.93;;;8.07;;
59302;SDS011;45074;52.764;6.896;2023-07-29T05:32:10;8.65;;;6.78;;
59302;SDS011;45074;52.764;6.896;2023-07-29T05:34:35;9.18;;;8.23;;
59302;SDS011;45074;52.764;6.896;2023-07-29T05:37:01;8.05;;;7.25;;
59302;SDS011;45074;52.764;6.896;2023-07-29T05:39:26;8.65;;;6.43;;
59302;SDS011;45074;52.764;6.896;2023-07-29T05:41:52;9.45;;;6.45;;
59302;SDS011;45074;52.764;6.896;2023-07-29T05:44:18;8.35;;;6.28;;
59302;SDS011;45074;52.764;6.896;2023-07-29T05:46:43;8.57;;;6.63;;
59302;SDS011;45074;52.764;6.896;2023-07-29T05:49:09;9.63;;;6.85;;
59302;SDS011;45074;52.764;6.896;2023-07-29T05:51:34;8.18;;;6.53;;
59302;SDS011;45074;52.764;6.896;2023-07-29T05:54:00;8.77;;;6.68;;
59302;SDS011;45074;52.764;6.896;2023-07-29T05:56:26;9.65;;;6.90;;
59302;SDS011;45074;52.764;6.896;2023-07-29T05:58:51;8.32;;;6.10;;
59302;SDS011;45074;52.764;6.896;2023-07-29T06:01:17;9.40;;;6.50;;
59302;SDS011;45074;52.764;6.896;2023-07-29T06:03:46;11.77;;;6.70;;
59302;SDS011;45074;52.764;6.896;2023-07-29T06:06:12;11.00;;;6.90;;
59302;SDS011;45074;52.764;6.896;2023-07-29T06:08:37;11.50;;;7.13;;
59302;SDS011;45074;52.764;6.896;2023-07-29T06:11:03;9.60;;;6.18;;
59302;SDS011;45074;52.764;6.896;2023-07-29T06:13:31;10.52;;;6.25;;
59302;SDS011;45074;52.764;6.896;2023-07-29T06:15:57;11.95;;;7.40;;
59302;SDS011;45074;52.764;6.896;2023-07-29T06:18:23;9.60;;;7.03;;
59302;SDS011;45074;52.764;6.896;2023-07-29T06:20:49;9.02;;;6.53;;
59302;SDS011;45074;52.764;6.896;2023-07-29T06:23:15;9.65;;;6.75;;
59302;SDS011;45074;52.764;6.896;2023-07-29T06:25:41;10.05;;;5.95;;
59302;SDS011;45074;52.764;6.896;2023-07-29T06:28:08;10.20;;;5.93;;
59302;SDS011;45074;52.764;6.896;2023-07-29T06:30:34;10.77;;;6.68;;
59302;SDS011;45074;52.764;6.896;2023-07-29T06:33:00;11.18;;;7.10;;
59302;SDS011;45074;52.764;6.896;2023-07-29T06:35:28;11.73;;;7.25;;
59302;SDS011;45074;52.764;6.896;2023-07-29T06:37:54;11.73;;;7.10;;
59302;SDS011;45074;52.764;6.896;2023-07-29T06:40:20;10.60;;;7.93;;
59302;SDS011;45074;52.764;6.896;2023-07-29T06:42:46;9.93;;;7.35;;
59302;SDS011;45074;52.764;6.896;2023-07-29T06:45:12;11.05;;;6.82;;
59302;SDS011;45074;52.764;6.896;2023-07-29T06:47:38;10.95;;;7.00;;
59302;SDS011;45074;52.764;6.896;2023-07-29T06:50:03;10.50;;;7.07;;
59302;SDS011;45074;52.764;6.896;2023-07-29T06:52:30;11.15;;;7.30;;
59302;SDS011;45074;52.764;6.896;2023-07-29T06:54:56;12.32;;;7.95;;
59302;SDS011;45074;52.764;6.896;2023-07-29T06:57:21;11.32;;;8.73;;
59302;SDS011;45074;52.764;6.896;2023-07-29T06:59:47;10.50;;;5.97;;
59302;SDS011;45074;52.764;6.896;2023-07-29T07:02:12;18.13;;;14.48;;
59302;SDS011;45074;52.764;6.896;2023-07-29T07:04:38;9.73;;;6.95;;
59302;SDS011;45074;52.764;6.896;2023-07-29T07:07:04;12.10;;;7.15;;
59302;SDS011;45074;52.764;6.896;2023-07-29T07:09:30;20.65;;;14.00;;
59302;SDS011;45074;52.764;6.896;2023-07-29T07:11:55;10.18;;;6.15;;
59302;SDS011;45074;52.764;6.896;2023-07-29T07:14:21;10.23;;;6.18;;
59302;SDS011;45074;52.764;6.896;2023-07-29T07:16:46;23.23;;;17.40;;
59302;SDS011;45074;52.764;6.896;2023-07-29T07:19:12;16.67;;;13.70;;
59302;SDS011;45074;52.764;6.896;2023-07-29T07:21:38;10.07;;;5.47;;
59302;SDS011;45074;52.764;6.896;2023-07-29T07:24:04;11.70;;;8.02;;
59302;SDS011;45074;52.764;6.896;2023-07-29T07:26:30;11.57;;;6.47;;
59302;SDS011;45074;52.764;6.896;2023-07-29T07:28:56;29.35;;;18.85;;
59302;SDS011;45074;52.764;6.896;2023-07-29T07:31:22;20.27;;;15.95;;
59302;SDS011;45074;52.764;6.896;2023-07-29T07:33:48;12.13;;;7.03;;
59302;SDS011;45074;52.764;6.896;2023-07-29T07:36:14;20.50;;;18.30;;
59302;SDS011;45074;52.764;6.896;2023-07-29T07:38:41;26.52;;;17.52;;
59302;SDS011;45074;52.764;6.896;2023-07-29T07:41:07;29.20;;;19.30;;
59302;SDS011;45074;52.764;6.896;2023-07-29T07:43:33;27.33;;;18.17;;
59302;SDS011;45074;52.764;6.896;2023-07-29T07:46:02;25.83;;;18.20;;
59302;SDS011;45074;52.764;6.896;2023-07-29T07:48:29;31.35;;;21.90;;
59302;SDS011;45074;52.764;6.896;2023-07-29T07:50:54;12.13;;;6.82;;
59302;SDS011;45074;52.764;6.896;2023-07-29T07:53:20;10.85;;;6.32;;
59302;SDS011;45074;52.764;6.896;2023-07-29T07:55:46;9.88;;;5.68;;
59302;SDS011;45074;52.764;6.896;2023-07-29T07:58:12;20.30;;;12.98;;
59302;SDS011;45074;52.764;6.896;2023-07-29T08:00:38;8.95;;;5.90;;
59302;SDS011;45074;52.764;6.896;2023-07-29T08:03:04;8.23;;;5.65;;
59302;SDS011;45074;52.764;6.896;2023-07-29T08:05:30;9.70;;;5.60;;
59302;SDS011;45074;52.764;6.896;2023-07-29T08:07:57;25.00;;;17.75;;
59302;SDS011;45074;52.764;6.896;2023-07-29T08:10:23;8.43;;;4.72;;
59302;SDS011;45074;52.764;6.896;2023-07-29T08:12:49;9.43;;;5.05;;
59302;SDS011;45074;52.764;6.896;2023-07-29T08:15:15;8.30;;;4.70;;
59302;SDS011;45074;52.764;6.896;2023-07-29T08:17:41;8.02;;;4.47;;
59302;SDS011;45074;52.764;6.896;2023-07-29T08:20:07;13.73;;;11.57;;
59302;SDS011;45074;52.764;6.896;2023-07-29T08:22:33;8.60;;;4.75;;
59302;SDS011;45074;52.764;6.896;2023-07-29T08:24:58;13.88;;;11.70;;
59302;SDS011;45074;52.764;6.896;2023-07-29T08:27:24;22.38;;;14.23;;
59302;SDS011;45074;52.764;6.896;2023-07-29T08:29:50;8.45;;;5.90;;
59302;SDS011;45074;52.764;6.896;2023-07-29T08:32:16;14.13;;;12.63;;
59302;SDS011;45074;52.764;6.896;2023-07-29T08:34:41;26.05;;;16.20;;
59302;SDS011;45074;52.764;6.896;2023-07-29T08:37:07;22.27;;;14.07;;
59302;SDS011;45074;52.764;6.896;2023-07-29T08:39:32;8.38;;;4.53;;
59302;SDS011;45074;52.764;6.896;2023-07-29T08:42:01;16.58;;;10.27;;
59302;SDS011;45074;52.764;6.896;2023-07-29T08:44:35;6.60;;;3.55;;
59302;SDS011;45074;52.764;6.896;2023-07-29T08:47:05;8.02;;;4.00;;
59302;SDS011;45074;52.764;6.896;2023-07-29T08:49:31;6.75;;;3.80;;
59302;SDS011;45074;52.764;6.896;2023-07-29T08:51:57;16.08;;;6.75;;
59302;SDS011;45074;52.764;6.896;2023-07-29T08:54:24;6.85;;;3.08;;
59302;SDS011;45074;52.764;6.896;2023-07-29T08:56:50;8.23;;;3.30;;
59302;SDS011;45074;52.764;6.896;2023-07-29T08:59:16;8.60;;;3.15;;
59302;SDS011;45074;52.764;6.896;2023-07-29T09:01:42;7.07;;;3.47;;
59302;SDS011;45074;52.764;6.896;2023-07-29T09:04:09;6.88;;;2.92;;
59302;SDS011;45074;52.764;6.896;2023-07-29T09:06:35;6.57;;;2.95;;
59302;SDS011;45074;52.764;6.896;2023-07-29T09:09:03;7.00;;;2.90;;
59302;SDS011;45074;52.764;6.896;2023-07-29T09:11:30;5.13;;;2.67;;
59302;SDS011;45074;52.764;6.896;2023-07-29T09:13:56;6.97;;;3.00;;
59302;SDS011;45074;52.764;6.896;2023-07-29T09:16:22;6.78;;;3.25;;
59302;SDS011;45074;52.764;6.896;2023-07-29T09:18:49;6.15;;;3.20;;
59302;SDS011;45074;52.764;6.896;2023-07-29T09:21:22;6.68;;;2.80;;
59302;SDS011;45074;52.764;6.896;2023-07-29T09:23:50;7.63;;;2.65;;
59302;SDS011;45074;52.764;6.896;2023-07-29T09:26:22;4.80;;;2.50;;
59302;SDS011;45074;52.764;6.896;2023-07-29T09:28:52;5.40;;;2.53;;
59302;SDS011;45074;52.764;6.896;2023-07-29T09:31:20;5.45;;;2.50;;
59302;SDS011;45074;52.764;6.896;2023-07-29T09:33:47;5.82;;;2.08;;
59302;SDS011;45074;52.764;6.896;2023-07-29T09:36:13;4.07;;;1.92;;
59302;SDS011;45074;52.764;6.896;2023-07-29T09:38:39;4.45;;;2.10;;
59302;SDS011;45074;52.764;6.896;2023-07-29T09:41:05;5.07;;;2.08;;
59302;SDS011;45074;52.764;6.896;2023-07-29T09:43:32;3.92;;;2.10;;
59302;SDS011;45074;52.764;6.896;2023-07-29T09:45:59;3.97;;;2.05;;
59302;SDS011;45074;52.764;6.896;2023-07-29T09:48:26;4.00;;;2.00;;
59302;SDS011;45074;52.764;6.896;2023-07-29T09:50:54;5.93;;;2.33;;
59302;SDS011;45074;52.764;6.896;2023-07-29T09:53:20;3.88;;;1.80;;
59302;SDS011;45074;52.764;6.896;2023-07-29T09:55:47;4.85;;;2.10;;
59302;SDS011;45074;52.764;6.896;2023-07-29T09:58:21;7.18;;;4.85;;
59302;SDS011;45074;52.764;6.896;2023-07-29T10:00:52;4.25;;;2.38;;
59302;SDS011;45074;52.764;6.896;2023-07-29T10:03:21;4.00;;;2.13;;
59302;SDS011;45074;52.764;6.896;2023-07-29T10:05:47;5.80;;;2.60;;
59302;SDS011;45074;52.764;6.896;2023-07-29T10:08:14;3.60;;;2.97;;
59302;SDS011;45074;52.764;6.896;2023-07-29T10:10:42;4.15;;;2.40;;
59302;SDS011;45074;52.764;6.896;2023-07-29T10:13:09;5.72;;;4.07;;
59302;SDS011;45074;52.764;6.896;2023-07-29T10:15:35;4.57;;;3.65;;
59302;SDS011;45074;52.764;6.896;2023-07-29T10:18:01;7.03;;;5.35;;
59302;SDS011;45074;52.764;6.896;2023-07-29T10:20:29;5.53;;;3.22;;
59302;SDS011;45074;52.764;6.896;2023-07-29T10:22:59;6.70;;;3.25;;
59302;SDS011;45074;52.764;6.896;2023-07-29T10:25:25;5.85;;;3.30;;
59302;SDS011;45074;52.764;6.896;2023-07-29T10:28:06;5.00;;;3.20;;
59302;SDS011;45074;52.764;6.896;2023-07-29T10:30:32;6.05;;;3.20;;
59302;SDS011;45074;52.764;6.896;2023-07-29T10:33:01;5.68;;;4.72;;
59302;SDS011;45074;52.764;6.896;2023-07-29T10:35:29;6.13;;;2.95;;
59302;SDS011;45074;52.764;6.896;2023-07-29T10:37:55;5.28;;;3.38;;
59302;SDS011;45074;52.764;6.896;2023-07-29T10:40:21;8.88;;;7.15;;
59302;SDS011;45074;52.764;6.896;2023-07-29T10:45:39;10.05;;;9.10;;
59302;SDS011;45074;52.764;6.896;2023-07-29T10:48:06;13.37;;;10.00;;
59302;SDS011;45074;52.764;6.896;2023-07-29T10:50:36;11.43;;;9.52;;
59302;SDS011;45074;52.764;6.896;2023-07-29T10:53:02;12.20;;;10.38;;
59302;SDS011;45074;52.764;6.896;2023-07-29T10:55:37;8.20;;;7.45;;
59302;SDS011;45074;52.764;6.896;2023-07-29T11:00:32;9.50;;;8.18;;
59302;SDS011;45074;52.764;6.896;2023-07-29T11:02:59;7.50;;;6.80;;
59302;SDS011;45074;52.764;6.896;2023-07-29T11:05:41;8.57;;;7.75;;
59302;SDS011;45074;52.764;6.896;2023-07-29T11:08:21;9.30;;;7.68;;
59302;SDS011;45074;52.764;6.896;2023-07-29T11:13:26;13.10;;;10.73;;
59302;SDS011;45074;52.764;6.896;2023-07-29T11:15:53;8.30;;;7.50;;
59302;SDS011;45074;52.764;6.896;2023-07-29T11:18:20;10.45;;;9.32;;
59302;SDS011;45074;52.764;6.896;2023-07-29T11:20:46;10.48;;;9.02;;
59302;SDS011;45074;52.764;6.896;2023-07-29T11:23:13;6.82;;;5.65;;
59302;SDS011;45074;52.764;6.896;2023-07-29T11:25:39;6.15;;;4.10;;
59302;SDS011;45074;52.764;6.896;2023-07-29T11:28:05;8.63;;;6.82;;
59302;SDS011;45074;52.764;6.896;2023-07-29T11:30:31;7.10;;;4.80;;
59302;SDS011;45074;52.764;6.896;2023-07-29T11:32:58;7.30;;;5.22;;
59302;SDS011;45074;52.764;6.896;2023-07-29T11:35:25;6.88;;;5.30;;
59302;SDS011;45074;52.764;6.896;2023-07-29T11:37:51;6.43;;;4.78;;
59302;SDS011;45074;52.764;6.896;2023-07-29T11:40:18;7.57;;;5.10;;
59302;SDS011;45074;52.764;6.896;2023-07-29T11:42:45;8.25;;;7.10;;
59302;SDS011;45074;52.764;6.896;2023-07-29T11:45:11;8.57;;;7.75;;
59302;SDS011;45074;52.764;6.896;2023-07-29T11:47:38;13.82;;;12.73;;
59302;SDS011;45074;52.764;6.896;2023-07-29T11:50:04;6.43;;;5.70;;
59302;SDS011;45074;52.764;6.896;2023-07-29T11:52:35;6.18;;;4.85;;
59302;SDS011;45074;52.764;6.896;2023-07-29T11:55:02;9.40;;;6.93;;
59302;SDS011;45074;52.764;6.896;2023-07-29T11:57:30;8.63;;;7.45;;
59302;SDS011;45074;52.764;6.896;2023-07-29T11:59:58;7.78;;;6.70;;
59302;SDS011;45074;52.764;6.896;2023-07-29T12:02:24;7.65;;;6.95;;
59302;SDS011;45074;52.764;6.896;2023-07-29T12:04:51;8.88;;;7.32;;
59302;SDS011;45074;52.764;6.896;2023-07-29T12:07:17;7.82;;;7.05;;
59302;SDS011;45074;52.764;6.896;2023-07-29T12:09:44;8.48;;;7.05;;
59302;SDS011;45074;52.764;6.896;2023-07-29T12:12:11;6.55;;;4.95;;
59302;SDS011;45074;52.764;6.896;2023-07-29T12:14:37;8.15;;;6.78;;
59302;SDS011;45074;52.764;6.896;2023-07-29T12:17:04;6.65;;;4.60;;
59302;SDS011;45074;52.764;6.896;2023-07-29T12:19:34;5.80;;;3.92;;
59302;SDS011;45074;52.764;6.896;2023-07-29T12:22:01;6.68;;;4.00;;
59302;SDS011;45074;52.764;6.896;2023-07-29T12:24:29;6.30;;;3.50;;
59302;SDS011;45074;52.764;6.896;2023-07-29T12:26:56;5.05;;;3.80;;
59302;SDS011;45074;52.764;6.896;2023-07-29T12:29:22;6.72;;;3.53;;
59302;SDS011;45074;52.764;6.896;2023-07-29T12:31:49;4.82;;;3.65;;
59302;SDS011;45074;52.764;6.896;2023-07-29T12:34:24;4.60;;;3.25;;
59302;SDS011;45074;52.764;6.896;2023-07-29T12:36:51;6.47;;;3.10;;
59302;SDS011;45074;52.764;6.896;2023-07-29T12:39:19;5.82;;;3.45;;
59302;SDS011;45074;52.764;6.896;2023-07-29T12:41:45;5.43;;;3.25;;
59302;SDS011;45074;52.764;6.896;2023-07-29T12:44:12;4.43;;;3.10;;
59302;SDS011;45074;52.764;6.896;2023-07-29T12:46:38;4.07;;;3.17;;
59302;SDS011;45074;52.764;6.896;2023-07-29T12:49:04;6.22;;;3.47;;
59302;SDS011;45074;52.764;6.896;2023-07-29T12:51:30;5.03;;;3.47;;
59302;SDS011;45074;52.764;6.896;2023-07-29T12:53:56;4.85;;;3.30;;
59302;SDS011;45074;52.764;6.896;2023-07-29T12:56:22;5.15;;;3.13;;
59302;SDS011;45074;52.764;6.896;2023-07-29T12:58:48;5.57;;;3.55;;
59302;SDS011;45074;52.764;6.896;2023-07-29T13:01:14;4.03;;;3.22;;
59302;SDS011;45074;52.764;6.896;2023-07-29T13:03:43;6.18;;;3.75;;
59302;SDS011;45074;52.764;6.896;2023-07-29T13:06:10;6.45;;;3.80;;
59302;SDS011;45074;52.764;6.896;2023-07-29T13:08:36;6.85;;;6.25;;
59302;SDS011;45074;52.764;6.896;2023-07-29T13:11:02;5.95;;;5.40;;
59302;SDS011;45074;52.764;6.896;2023-07-29T13:13:29;6.03;;;4.90;;
59302;SDS011;45074;52.764;6.896;2023-07-29T13:15:55;5.88;;;5.28;;
59302;SDS011;45074;52.764;6.896;2023-07-29T13:18:21;6.30;;;5.70;;
59302;SDS011;45074;52.764;6.896;2023-07-29T13:20:47;5.95;;;5.18;;
59302;SDS011;45074;52.764;6.896;2023-07-29T13:23:14;7.15;;;5.05;;
59302;SDS011;45074;52.764;6.896;2023-07-29T13:25:40;12.25;;;10.18;;
59302;SDS011;45074;52.764;6.896;2023-07-29T13:28:06;7.07;;;6.05;;
59302;SDS011;45074;52.764;6.896;2023-07-29T13:30:32;7.05;;;5.78;;
59302;SDS011;45074;52.764;6.896;2023-07-29T13:32:58;6.75;;;6.15;;
59302;SDS011;45074;52.764;6.896;2023-07-29T13:35:24;6.85;;;6.10;;
59302;SDS011;45074;52.764;6.896;2023-07-29T13:37:51;6.13;;;4.22;;
59302;SDS011;45074;52.764;6.896;2023-07-29T13:40:17;5.22;;;3.55;;
59302;SDS011;45074;52.764;6.896;2023-07-29T13:42:43;6.47;;;5.60;;
59302;SDS011;45074;52.764;6.896;2023-07-29T13:45:09;5.25;;;4.25;;
59302;SDS011;45074;52.764;6.896;2023-07-29T13:47:35;6.05;;;4.63;;
59302;SDS011;45074;52.764;6.896;2023-07-29T13:50:01;6.35;;;3.80;;
59302;SDS011;45074;52.764;6.896;2023-07-29T13:52:28;6.72;;;4.47;;
59302;SDS011;45074;52.764;6.896;2023-07-29T13:54:54;6.43;;;5.80;;
59302;SDS011;45074;52.764;6.896;2023-07-29T13:57:20;6.10;;;5.50;;
59302;SDS011;45074;52.764;6.896;2023-07-29T13:59:46;10.20;;;9.20;;
59302;SDS011;45074;52.764;6.896;2023-07-29T14:02:13;5.50;;;4.95;;
59302;SDS011;45074;52.764;6.896;2023-07-29T14:04:39;5.30;;;4.80;;
59302;SDS011;45074;52.764;6.896;2023-07-29T14:07:05;5.35;;;4.80;;
59302;SDS011;45074;52.764;6.896;2023-07-29T14:09:31;5.00;;;4.63;;
59302;SDS011;45074;52.764;6.896;2023-07-29T14:11:57;4.78;;;4.07;;
59302;SDS011;45074;52.764;6.896;2023-07-29T14:14:23;11.85;;;10.77;;
59302;SDS011;45074;52.764;6.896;2023-07-29T14:16:49;5.30;;;4.90;;
59302;SDS011;45074;52.764;6.896;2023-07-29T14:19:15;4.95;;;4.30;;
59302;SDS011;45074;52.764;6.896;2023-07-29T14:21:41;5.25;;;4.85;;
59302;SDS011;45074;52.764;6.896;2023-07-29T14:24:07;11.15;;;10.07;;
59302;SDS011;45074;52.764;6.896;2023-07-29T14:26:33;11.98;;;10.85;;
59302;SDS011;45074;52.764;6.896;2023-07-29T14:28:59;8.75;;;7.47;;
59302;SDS011;45074;52.764;6.896;2023-07-29T14:31:25;9.25;;;8.43;;
59302;SDS011;45074;52.764;6.896;2023-07-29T14:33:51;5.50;;;4.93;;
59302;SDS011;45074;52.764;6.896;2023-07-29T14:36:17;12.20;;;10.98;;
59302;SDS011;45074;52.764;6.896;2023-07-29T14:38:43;5.10;;;4.50;;
59302;SDS011;45074;52.764;6.896;2023-07-29T14:41:09;5.72;;;5.03;;
59302;SDS011;45074;52.764;6.896;2023-07-29T14:43:35;5.78;;;5.22;;
59302;SDS011;45074;52.764;6.896;2023-07-29T14:46:01;5.22;;;4.55;;
59302;SDS011;45074;52.764;6.896;2023-07-29T14:48:27;5.35;;;4.88;;